Time;durP1;ratioP1;P1;durP2;ratioP2;P2;SDS_P1;SDS_P2;PMS_P1;PMS_P2;Temp;Humidity;BMP_temperature;BMP_pressure;BME280_temperature;BME280_humidity;BME280_pressure;Samples;Min_cycle;Max_cycle;Signal;HPM_P1;HPM_P2
2023/05/16 08:08:08;;;;;;;34.40;19.00;;;;;;;14.53;86.55;95259.59;104493;1304;557441;-62
2023/05/16 08:10:37;;;;;;;26.40;14.50;;;;;;;14.47;86.95;95261.93;105795;1287;142000;-61
2023/05/16 08:13:05;;;;;;;16.60;11.60;;;;;;;14.45;87.58;95261.34;106122;1287;24295;-62
2023/05/16 08:15:33;;;;;;;16.60;11.40;;;;;;;14.39;87.51;95259.27;106127;1264;24667;-63
2023/05/16 08:18:01;;;;;;;23.00;14.50;;;;;;;14.37;87.82;95260.90;106263;1284;22711;-62
2023/05/16 08:20:29;;;;;;;49.60;27.00;;;;;;;14.31;87.70;95269.65;106191;1284;22775;-63
2023/05/16 08:22:58;;;;;;;29.70;18.60;;;;;;;14.24;88.30;95278.94;106397;1284;25574;-63
2023/05/16 08:25:26;;;;;;;23.10;11.70;;;;;;;14.21;88.95;95283.48;106248;1284;24211;-62
2023/05/16 08:27:56;;;;;;;17.80;11.30;;;;;;;14.19;89.00;95287.80;106084;1284;22750;-62
2023/05/16 08:30:25;;;;;;;19.20;11.70;;;;;;;14.18;88.93;95295.09;106112;1284;22527;-63
2023/05/16 08:32:53;;;;;;;32.10;18.60;;;;;;;14.13;88.66;95292.79;106076;1284;22523;-63
2023/05/16 08:35:21;;;;;;;33.60;18.50;;;;;;;14.15;89.07;95289.17;106092;1284;22530;-63
2023/05/16 08:37:50;;;;;;;21.80;15.20;;;;;;;14.15;88.59;95285.30;106125;1284;25255;-62
2023/05/16 08:40:19;;;;;;;22.10;13.30;;;;;;;14.15;88.79;95280.34;106028;1284;25946;-62
2023/05/16 08:42:47;;;;;;;18.50;13.20;;;;;;;14.18;88.93;95273.83;106075;1284;24390;-62
2023/05/16 08:45:16;;;;;;;17.20;14.00;;;;;;;14.21;88.80;95275.70;106173;1284;22527;-62
2023/05/16 08:47:45;;;;;;;14.30;10.10;;;;;;;14.10;88.45;95275.20;106077;1284;25395;-62
2023/05/16 08:50:15;;;;;;;16.60;10.00;;;;;;;14.03;88.81;95272.44;106119;1284;24229;-61
2023/05/16 08:52:44;;;;;;;16.10;10.60;;;;;;;13.98;88.73;95268.08;106221;1284;24400;-62
2023/05/16 08:55:14;;;;;;;13.60;10.00;;;;;;;13.94;88.66;95274.56;106110;1284;25357;-63
2023/05/16 08:57:44;;;;;;;12.90;9.60;;;;;;;13.93;88.93;95274.27;106127;1284;25415;-62
2023/05/16 09:00:13;;;;;;;15.80;9.60;;;;;;;13.90;89.51;95282.34;106226;1280;22509;-63
2023/05/16 09:02:43;;;;;;;16.90;11.00;;;;;;;13.86;89.53;95277.33;106262;1280;23883;-65
2023/05/16 09:05:14;;;;;;;16.10;12.10;;;;;;;13.98;90.36;95276.04;106136;1280;22527;-63
2023/05/16 09:07:43;;;;;;;20.90;13.60;;;;;;;14.11;90.70;95277.29;106222;1280;24340;-63
2023/05/16 09:10:12;;;;;;;21.60;13.00;;;;;;;14.21;90.57;95271.11;106455;1276;22520;-63
2023/05/16 09:12:40;;;;;;;19.20;12.40;;;;;;;14.25;90.18;95270.05;106522;1276;24066;-64
2023/05/16 09:15:10;;;;;;;13.30;11.00;;;;;;;14.26;90.09;95264.88;110366;1276;22337;-62
2023/05/16 09:17:44;;;;;;;18.00;11.70;;;;;;;14.32;90.01;95260.60;106472;1268;24441;-63
2023/05/16 09:20:20;;;;;;;19.30;13.10;;;;;;;14.40;90.24;95260.45;106672;1276;22509;-63
2023/05/16 09:22:54;;;;;;;18.70;12.90;;;;;;;14.51;90.01;95260.40;106626;1260;24260;-65
2023/05/16 09:25:27;;;;;;;24.30;14.80;;;;;;;14.60;89.62;95260.08;106745;1276;22520;-63
2023/05/16 09:28:00;;;;;;;23.60;16.60;;;;;;;14.65;89.54;95260.02;106529;1276;24891;-64
2023/05/16 09:30:36;;;;;;;21.80;14.70;;;;;;;14.65;89.25;95256.52;106821;1276;22636;-63
2023/05/16 09:33:06;;;;;;;18.50;12.40;;;;;;;14.72;89.19;95251.08;106645;1276;25344;-63
2023/05/16 09:35:35;;;;;;;17.50;9.90;;;;;;;14.80;89.02;95244.73;106843;1276;24197;-64
2023/05/16 09:38:14;;;;;;;13.90;9.40;;;;;;;14.88;88.78;95249.73;106856;1276;22616;-62
2023/05/16 09:40:44;;;;;;;14.10;9.30;;;;;;;14.93;89.13;95259.77;106735;1276;24388;-64
2023/05/16 09:43:15;;;;;;;14.90;9.70;;;;;;;15.02;88.93;95255.53;109698;1276;22520;-62
2023/05/16 09:45:47;;;;;;;16.10;9.70;;;;;;;15.07;88.98;95252.48;106748;1276;22774;-63
2023/05/16 09:48:16;;;;;;;12.70;8.50;;;;;;;15.11;88.79;95257.63;106577;1276;22636;-64
2023/05/16 09:50:51;;;;;;;14.90;9.00;;;;;;;15.03;88.15;95255.50;106649;1276;22573;-63
2023/05/16 09:53:28;;;;;;;15.10;10.00;;;;;;;14.98;88.46;95245.92;106663;1276;22524;-63
2023/05/16 09:56:14;;;;;;;17.00;9.30;;;;;;;15.03;88.91;95251.93;106723;1276;24204;-61
2023/05/16 09:58:44;;;;;;;17.30;9.80;;;;;;;15.07;88.72;95251.06;106899;1276;24222;-61
2023/05/16 10:01:13;;;;;;;20.60;9.60;;;;;;;15.04;88.61;95252.77;106739;1276;24245;-61
2023/05/16 10:03:42;;;;;;;16.50;10.00;;;;;;;15.08;89.01;95258.09;106571;1276;25556;-62
2023/05/16 10:06:12;;;;;;;15.40;9.80;;;;;;;15.13;89.79;95261.08;106635;1276;25372;-62
2023/05/16 10:08:42;;;;;;;17.50;10.40;;;;;;;15.22;89.89;95246.00;106622;1264;24222;-62
2023/05/16 10:11:11;;;;;;;15.20;10.20;;;;;;;15.23;89.52;95248.29;106882;1264;22517;-62
2023/05/16 10:13:40;;;;;;;13.20;10.20;;;;;;;15.30;89.87;95245.33;106693;1276;24246;-62
2023/05/16 10:16:13;;;;;;;12.40;8.20;;;;;;;15.35;89.69;95239.23;106627;1276;24350;-62
2023/05/16 10:18:42;;;;;;;;;;;;;;;15.33;89.43;95237.92;106637;1276;22508;-62
2023/05/16 10:21:15;;;;;;;13.90;9.00;;;;;;;15.34;89.75;95236.10;106817;1276;24025;-62
2023/05/16 10:23:47;;;;;;;15.60;10.40;;;;;;;15.32;88.97;95236.73;106735;1276;22767;-62
2023/05/16 10:26:16;;;;;;;10.50;8.80;;;;;;;15.21;88.92;95233.83;106608;1276;25309;-61
2023/05/16 10:28:45;;;;;;;10.70;7.40;;;;;;;15.09;90.24;95227.79;106630;1276;22655;-62
2023/05/16 10:31:14;;;;;;;12.60;7.00;;;;;;;15.03;91.03;95229.44;106659;1276;22632;-61
2023/05/16 10:33:42;;;;;;;17.40;6.50;;;;;;;15.03;90.97;95226.26;106674;1276;24385;-62
2023/05/16 10:36:12;;;;;;;9.80;5.50;;;;;;;15.11;91.55;95223.62;106634;1276;25390;-61
2023/05/16 10:38:41;;;;;;;11.80;4.90;;;;;;;15.20;91.45;95220.58;106604;1276;22522;-62
2023/05/16 10:41:10;;;;;;;15.00;6.30;;;;;;;15.26;90.95;95218.73;106541;1276;25470;-61
2023/05/16 10:43:38;;;;;;;11.90;5.00;;;;;;;15.29;90.63;95218.58;106555;1276;25371;-61
2023/05/16 10:46:10;;;;;;;9.50;5.30;;;;;;;15.31;90.24;95213.20;106579;1276;22521;-62
2023/05/16 10:48:39;;;;;;;14.80;6.80;;;;;;;15.35;90.62;95218.52;106647;1276;25472;-62
2023/05/16 10:51:37;;;;;;;13.80;6.40;;;;;;;15.40;90.77;95213.52;106643;1276;22525;-61
2023/05/16 10:54:13;;;;;;;9.70;5.30;;;;;;;15.42;90.65;95208.11;106607;1276;25495;-62
2023/05/16 10:56:42;;;;;;;11.70;5.80;;;;;;;15.41;90.53;95202.31;106615;1276;25210;-62
2023/05/16 10:59:24;;;;;;;9.80;5.30;;;;;;;15.46;90.74;95196.42;106590;1276;22524;-62
2023/05/16 11:01:54;;;;;;;12.20;5.10;;;;;;;15.58;90.87;95198.88;106550;1276;22519;-62
2023/05/16 11:04:50;;;;;;;11.20;5.60;;;;;;;15.70;90.72;95199.43;106583;1276;24186;-62
2023/05/16 11:07:20;;;;;;;11.20;5.10;;;;;;;15.82;90.75;95201.41;106611;1276;22517;-62
2023/05/16 11:10:08;;;;;;;12.20;4.80;;;;;;;15.90;90.37;95199.42;106589;1266;22933;-62
2023/05/16 11:12:37;;;;;;;13.50;5.00;;;;;;;15.97;89.99;95201.96;106555;1276;25294;-62
2023/05/16 11:15:25;;;;;;;10.20;4.50;;;;;;;16.01;89.49;95198.77;106578;1276;25655;-62
2023/05/16 11:18:08;;;;;;;14.10;4.10;;;;;;;16.03;88.87;95193.01;106696;1276;24229;-62
2023/05/16 11:20:38;;;;;;;9.40;4.10;;;;;;;16.07;88.98;95195.30;106644;1276;25398;-62
2023/05/16 11:23:16;;;;;;;12.00;4.40;;;;;;;16.12;88.90;95195.61;106631;1276;22529;-62
2023/05/16 11:25:45;;;;;;;12.40;4.30;;;;;;;16.22;89.27;95195.64;106576;1276;22521;-62
2023/05/16 11:28:14;;;;;;;8.50;4.40;;;;;;;16.23;87.96;95190.98;106648;1276;22531;-64
2023/05/16 11:30:44;;;;;;;10.90;4.20;;;;;;;16.19;87.67;95187.61;106547;1276;22802;-62
2023/05/16 11:33:13;;;;;;;14.20;5.20;;;;;;;16.15;87.58;95187.98;106696;1276;24239;-62
2023/05/16 11:35:42;;;;;;;9.60;4.30;;;;;;;16.11;87.35;95191.89;106558;1276;24368;-62
2023/05/16 11:38:17;;;;;;;9.60;5.00;;;;;;;16.10;87.25;95193.57;106638;1276;22636;-62
2023/05/16 11:40:45;;;;;;;13.50;5.40;;;;;;;16.04;87.46;95194.19;106660;1276;25632;-62
2023/05/16 11:43:18;;;;;;;10.80;4.90;;;;;;;16.03;87.66;95192.64;106598;1276;22526;-62
2023/05/16 11:45:53;;;;;;;9.60;5.90;;;;;;;16.03;87.57;95190.34;106642;1276;25223;-62
2023/05/16 11:48:25;;;;;;;11.60;5.80;;;;;;;16.05;87.92;95192.02;106578;1276;23121;-62
2023/05/16 11:51:03;;;;;;;12.10;6.30;;;;;;;16.01;87.55;95193.60;106629;1276;22521;-62
2023/05/16 11:53:33;;;;;;;9.90;6.10;;;;;;;15.92;87.34;95194.73;106647;1276;22675;-62
2023/05/16 11:56:02;;;;;;;15.40;6.60;;;;;;;15.85;87.70;95198.08;106608;1276;22531;-62
2023/05/16 11:58:30;;;;;;;16.20;6.90;;;;;;;15.80;87.79;95198.50;106578;1276;22530;-63
2023/05/16 12:00:58;;;;;;;13.50;7.10;;;;;;;15.72;87.91;95197.77;106611;1276;22521;-62
2023/05/16 12:03:27;;;;;;;12.90;6.40;;;;;;;15.70;88.05;95196.98;106598;1276;22615;-64
2023/05/16 12:05:56;;;;;;;17.90;7.80;;;;;;;15.70;88.60;95195.02;106702;1276;24080;-62
2023/05/16 12:08:24;;;;;;;14.20;6.60;;;;;;;15.74;88.68;95191.30;106569;1276;23887;-62
2023/05/16 12:10:53;;;;;;;16.10;7.70;;;;;;;15.77;88.82;95183.52;106584;1276;22642;-62
2023/05/16 12:13:23;;;;;;;12.70;6.10;;;;;;;15.78;89.04;95181.02;106651;1276;22524;-62
2023/05/16 12:15:52;;;;;;;15.10;6.60;;;;;;;15.78;88.96;95177.45;106533;1276;24328;-62
2023/05/16 12:18:20;;;;;;;12.00;7.10;;;;;;;15.85;89.03;95170.23;106652;1276;22523;-62
2023/05/16 12:20:51;;;;;;;10.40;6.20;;;;;;;15.88;89.21;95173.45;106659;1276;24420;-62
2023/05/16 12:23:19;;;;;;;11.60;5.90;;;;;;;15.86;88.96;95169.84;106596;1276;22519;-62
2023/05/16 12:25:48;;;;;;;10.00;5.80;;;;;;;15.81;88.98;95172.90;106592;1276;22539;-62
2023/05/16 12:28:16;;;;;;;13.60;6.60;;;;;;;15.78;89.13;95171.09;106663;1276;22689;-62
2023/05/16 12:30:46;;;;;;;18.70;7.00;;;;;;;15.81;89.33;95174.84;106549;1276;25392;-62
2023/05/16 12:33:15;;;;;;;12.40;5.90;;;;;;;15.87;89.65;95170.31;106614;1276;22535;-63
2023/05/16 12:35:46;;;;;;;15.30;6.30;;;;;;;15.89;89.46;95168.27;106716;1276;22514;-62
2023/05/16 12:38:15;;;;;;;15.60;6.20;;;;;;;15.91;89.51;95163.93;106639;1276;25901;-62
2023/05/16 12:40:45;;;;;;;13.30;6.00;;;;;;;15.96;89.66;95163.70;106580;1276;25485;-62
2023/05/16 12:43:14;;;;;;;11.90;6.10;;;;;;;16.01;89.62;95158.48;106623;1276;22645;-63
2023/05/16 12:45:51;;;;;;;15.30;6.50;;;;;;;16.06;89.43;95155.96;106626;1276;22636;-62
2023/05/16 12:48:20;;;;;;;14.30;5.90;;;;;;;16.09;89.31;95147.11;106680;1276;22645;-63
2023/05/16 12:50:49;;;;;;;17.80;6.60;;;;;;;16.11;89.25;95144.70;106622;1276;22550;-63
2023/05/16 12:53:18;;;;;;;16.80;7.80;;;;;;;16.14;89.38;95139.61;106649;1276;22576;-62
2023/05/16 12:55:46;;;;;;;14.80;6.70;;;;;;;16.16;89.67;95137.35;106866;1276;25291;-62
2023/05/16 12:58:15;;;;;;;16.90;7.70;;;;;;;16.19;89.52;95129.92;106615;1276;22636;-63
2023/05/16 13:00:43;;;;;;;20.40;10.00;;;;;;;16.22;89.60;95129.81;106616;1276;24379;-62
2023/05/16 13:03:11;;;;;;;21.50;10.10;;;;;;;16.23;89.81;95124.25;106562;1276;22521;-62
2023/05/16 13:05:43;;;;;;;17.00;8.60;;;;;;;16.27;89.79;95117.52;106953;1276;22555;-62
2023/05/16 13:08:11;;;;;;;15.70;9.10;;;;;;;16.32;89.90;95119.04;106785;1276;25422;-62
2023/05/16 13:10:39;;;;;;;13.20;8.70;;;;;;;16.36;90.05;95112.98;106571;1276;22528;-62
2023/05/16 13:13:07;;;;;;;13.20;7.70;;;;;;;16.35;89.75;95109.46;106581;1276;22520;-63
2023/05/16 13:15:35;;;;;;;15.50;9.50;;;;;;;16.37;89.74;95106.17;106538;1276;22522;-62
2023/05/16 13:18:04;;;;;;;23.80;9.40;;;;;;;16.38;89.66;95101.70;106518;1276;22795;-63
2023/05/16 13:20:32;;;;;;;14.40;6.90;;;;;;;16.38;89.69;95091.58;106643;1276;24192;-62
2023/05/16 13:23:01;;;;;;;11.50;7.20;;;;;;;16.39;89.69;95090.45;106973;1276;22641;-63
2023/05/16 13:25:30;;;;;;;14.40;7.60;;;;;;;16.44;89.76;95093.27;106764;1276;22524;-63
2023/05/16 13:27:58;;;;;;;17.10;7.70;;;;;;;16.36;89.81;95090.29;106751;1276;22570;-63
2023/05/16 13:30:27;;;;;;;20.60;7.90;;;;;;;16.25;90.14;95086.38;106539;1276;22783;-62
2023/05/16 13:32:56;;;;;;;16.10;8.60;;;;;;;16.25;90.07;95084.41;106646;1276;22533;-63
2023/05/16 13:35:25;;;;;;;19.00;8.00;;;;;;;16.30;90.39;95075.85;106898;1276;25216;-62
2023/05/16 13:37:54;;;;;;;14.80;7.70;;;;;;;16.36;90.65;95073.22;107019;1276;22773;-62
2023/05/16 13:40:22;;;;;;;13.20;7.70;;;;;;;16.43;90.79;95071.44;106895;1276;24253;-63
2023/05/16 13:42:50;;;;;;;17.70;7.90;;;;;;;16.48;90.99;95069.48;106842;1276;25934;-63
2023/05/16 13:45:19;;;;;;;14.10;8.40;;;;;;;16.56;91.10;95074.02;106656;1276;22524;-62
2023/05/16 13:47:47;;;;;;;14.40;7.90;;;;;;;16.63;90.57;95070.81;106716;1272;22524;-63
2023/05/16 13:50:15;;;;;;;18.10;9.00;;;;;;;16.59;90.25;95075.09;106623;1276;22637;-63
2023/05/16 13:52:44;;;;;;;21.70;8.70;;;;;;;16.56;90.21;95073.98;106826;1276;22639;-62
2023/05/16 13:55:12;;;;;;;19.20;9.00;;;;;;;16.56;90.59;95065.69;106712;1276;22609;-62
2023/05/16 13:57:40;;;;;;;14.80;8.70;;;;;;;16.60;91.07;95059.61;106608;1276;25463;-62
2023/05/16 14:00:12;;;;;;;19.50;9.10;;;;;;;16.67;90.97;95046.65;106613;1276;22517;-63
2023/05/16 14:02:43;;;;;;;13.90;7.90;;;;;;;16.75;91.03;95048.91;106659;1276;22512;-62
2023/05/16 14:05:12;;;;;;;21.30;11.90;;;;;;;16.85;91.04;95050.33;106728;1276;22650;-63
2023/05/16 14:07:40;;;;;;;20.00;10.20;;;;;;;16.93;90.76;95051.02;106572;1276;22525;-63
2023/05/16 14:10:10;;;;;;;23.10;8.60;;;;;;;16.98;90.51;95058.23;106605;1276;25396;-62
2023/05/16 14:12:39;;;;;;;13.10;7.70;;;;;;;16.99;90.12;95057.42;106637;1276;22524;-62
2023/05/16 14:15:07;;;;;;;16.00;7.80;;;;;;;17.02;89.90;95051.77;106514;1276;25374;-63
2023/05/16 14:17:36;;;;;;;17.20;7.60;;;;;;;17.07;90.00;95053.97;106796;1276;22635;-63
2023/05/16 14:20:08;;;;;;;18.20;8.50;;;;;;;17.13;89.70;95055.30;106809;1276;22778;-63
2023/05/16 14:22:37;;;;;;;15.60;9.20;;;;;;;17.18;89.66;95053.76;106639;1276;22835;-63
2023/05/16 14:25:06;;;;;;;13.00;9.00;;;;;;;17.21;89.65;95051.13;106582;1276;25549;-63
2023/05/16 14:27:34;;;;;;;20.30;8.40;;;;;;;17.19;89.09;95049.46;106649;1276;22546;-62
2023/05/16 14:30:03;;;;;;;15.20;8.40;;;;;;;17.18;89.05;95048.80;106550;1276;25277;-62
2023/05/16 14:32:32;;;;;;;18.70;9.50;;;;;;;17.17;89.41;95040.48;106627;1276;22591;-62
2023/05/16 14:35:00;;;;;;;20.50;10.60;;;;;;;17.23;89.66;95043.04;106597;1276;24030;-62
2023/05/16 14:37:28;;;;;;;16.20;9.90;;;;;;;17.29;89.74;95038.61;106556;1276;22544;-62
2023/05/16 14:39:58;;;;;;;23.50;10.70;;;;;;;17.33;89.65;95035.55;106758;1276;22537;-62
2023/05/16 14:42:26;;;;;;;17.60;9.10;;;;;;;17.38;89.49;95038.66;106843;1276;22567;-62
2023/05/16 14:44:55;;;;;;;20.10;9.20;;;;;;;17.42;89.49;95035.64;106804;1276;25364;-62
2023/05/16 14:47:23;;;;;;;18.60;9.20;;;;;;;17.47;89.51;95035.84;106935;1276;22535;-62
2023/05/16 14:49:53;;;;;;;19.90;9.30;;;;;;;17.49;89.01;95039.14;106760;1276;24204;-62
2023/05/16 14:52:21;;;;;;;21.10;8.80;;;;;;;17.45;88.73;95041.32;106646;1272;22514;-62
2023/05/16 14:54:49;;;;;;;19.30;8.50;;;;;;;17.40;88.33;95040.55;106698;1276;22547;-62
2023/05/16 14:57:17;;;;;;;15.80;8.50;;;;;;;17.37;88.66;95041.39;106715;1276;25217;-62
2023/05/16 14:59:47;;;;;;;19.60;8.20;;;;;;;17.32;88.26;95039.52;106545;1276;24350;-63
2023/05/16 15:02:15;;;;;;;21.90;9.10;;;;;;;17.28;88.35;95039.39;106558;1276;22524;-62
2023/05/16 15:04:43;;;;;;;18.50;8.90;;;;;;;17.21;88.43;95034.80;106552;1276;22520;-62
2023/05/16 15:07:11;;;;;;;17.30;9.00;;;;;;;17.13;88.42;95034.01;106579;1276;22517;-62
2023/05/16 15:09:40;;;;;;;20.80;8.80;;;;;;;17.10;88.83;95029.70;106573;1276;22541;-62
2023/05/16 15:12:08;;;;;;;15.40;9.50;;;;;;;17.03;89.10;95033.23;106673;1276;24064;-62
2023/05/16 15:14:36;;;;;;;18.40;9.70;;;;;;;16.96;89.11;95034.16;106699;1276;24215;-62
2023/05/16 15:17:04;;;;;;;19.50;8.60;;;;;;;16.90;89.27;95030.92;106722;1276;22636;-62
2023/05/16 15:19:36;;;;;;;16.00;8.30;;;;;;;16.88;89.41;95027.99;106935;1276;22814;-62
2023/05/16 15:22:06;;;;;;;17.40;9.60;;;;;;;16.84;89.90;95029.81;106612;1276;22639;-62
2023/05/16 15:24:35;;;;;;;19.80;9.70;;;;;;;16.77;89.96;95021.65;106642;1276;24217;-62
2023/05/16 15:27:03;;;;;;;16.80;10.00;;;;;;;16.74;90.30;95023.92;106779;1276;22538;-62
2023/05/16 15:29:32;;;;;;;15.00;9.20;;;;;;;16.71;90.38;95022.83;106444;1276;22521;-62
2023/05/16 15:32:04;;;;;;;23.10;11.40;;;;;;;16.64;91.45;95022.95;106565;1276;22641;-62
2023/05/16 15:34:34;;;;;;;21.70;11.30;;;;;;;16.57;91.97;95018.41;106554;1276;22517;-62
2023/05/16 15:37:02;;;;;;;22.10;11.70;;;;;;;16.51;92.26;95017.45;106573;1276;23174;-62
2023/05/16 15:39:30;;;;;;;19.70;11.30;;;;;;;16.46;92.97;95015.92;106623;1276;22668;-62
2023/05/16 15:41:58;;;;;;;17.10;10.30;;;;;;;16.37;94.69;95018.32;106631;1276;25294;-62
2023/05/16 15:44:38;;;;;;;20.20;10.40;;;;;;;16.35;93.35;95026.41;106576;1276;22522;-62
2023/05/16 15:47:07;;;;;;;21.60;12.20;;;;;;;16.30;93.48;95025.45;106616;1276;24447;-62
2023/05/16 15:49:35;;;;;;;19.70;11.70;;;;;;;16.23;93.77;95021.67;106583;1276;25326;-62
2023/05/16 15:52:04;;;;;;;18.90;11.00;;;;;;;16.19;94.01;95025.25;106590;1276;22655;-62
2023/05/16 15:54:33;;;;;;;17.90;10.50;;;;;;;16.14;94.05;95019.31;106486;1276;25246;-62
2023/05/16 15:57:02;;;;;;;19.00;11.70;;;;;;;16.11;95.50;95020.69;106664;1276;22512;-62
2023/05/16 15:59:30;;;;;;;19.30;11.70;;;;;;;16.11;95.01;95020.13;106611;1276;25221;-63
2023/05/16 16:01:58;;;;;;;18.40;11.20;;;;;;;16.14;94.72;95021.76;106524;1276;23883;-62
2023/05/16 16:04:26;;;;;;;18.70;10.20;;;;;;;16.13;95.71;95022.73;106569;1276;25320;-62
2023/05/16 16:06:55;;;;;;;18.50;10.50;;;;;;;16.09;96.09;95021.30;106578;1276;22778;-62
2023/05/16 16:09:23;;;;;;;20.40;10.70;;;;;;;16.08;95.40;95020.33;106559;1276;25405;-62
2023/05/16 16:11:55;;;;;;;22.30;10.10;;;;;;;16.07;95.73;95020.04;106580;1276;25497;-61
2023/05/16 16:14:23;;;;;;;20.90;11.70;;;;;;;16.07;96.28;95018.78;106525;1276;26624;-62
2023/05/16 16:16:51;;;;;;;22.20;13.10;;;;;;;16.08;95.86;95015.17;106476;1276;22513;-62
2023/05/16 16:19:20;;;;;;;19.80;12.50;;;;;;;16.10;95.60;95013.31;106623;1276;24360;-62
2023/05/16 16:21:48;;;;;;;29.00;14.00;;;;;;;16.10;95.42;95007.98;106579;1276;24215;-62
2023/05/16 16:24:16;;;;;;;28.80;20.60;;;;;;;16.13;95.95;95008.20;106627;1276;22519;-62
2023/05/16 16:26:45;;;;;;;33.20;24.40;;;;;;;16.14;95.44;95007.08;106638;1276;24795;-62
2023/05/16 16:29:13;;;;;;;24.60;10.40;;;;;;;16.15;95.49;95006.85;106521;1276;25322;-62
2023/05/16 16:31:41;;;;;;;35.10;21.20;;;;;;;16.13;95.77;95007.45;106642;1276;23087;-63
2023/05/16 16:34:09;;;;;;;42.10;25.20;;;;;;;16.11;95.14;95010.60;106597;1276;24739;-62
2023/05/16 16:36:38;;;;;;;21.40;10.60;;;;;;;16.07;95.70;95012.41;106583;1276;25217;-62
2023/05/16 16:39:06;;;;;;;23.90;13.70;;;;;;;16.07;95.77;95008.30;106757;1276;22525;-62
2023/05/16 16:41:35;;;;;;;31.10;18.70;;;;;;;16.10;95.76;95008.18;106639;1276;24246;-62
2023/05/16 16:44:03;;;;;;;39.40;27.70;;;;;;;16.08;95.25;95002.57;106553;1276;25351;-62
2023/05/16 16:46:31;;;;;;;65.10;48.10;;;;;;;16.02;94.70;95001.80;106612;1276;24252;-62
2023/05/16 16:49:00;;;;;;;32.90;21.70;;;;;;;15.96;95.09;95004.23;106572;1276;22530;-62
2023/05/16 16:51:30;;;;;;;27.10;12.70;;;;;;;15.90;95.95;95000.06;106604;1276;25492;-62
2023/05/16 16:53:58;;;;;;;22.60;12.30;;;;;;;15.89;96.21;95000.47;106610;1276;25338;-62
2023/05/16 16:56:28;;;;;;;21.30;15.80;;;;;;;15.92;96.26;94995.56;106584;1276;25332;-62
2023/05/16 16:58:56;;;;;;;32.50;18.10;;;;;;;15.88;95.68;94994.13;106667;1276;22850;-62
2023/05/16 17:01:24;;;;;;;33.60;17.80;;;;;;;15.82;95.43;94987.55;106533;1276;25626;-62
2023/05/16 17:03:57;;;;;;;16.40;9.50;;;;;;;15.78;95.40;94989.29;106628;1276;22540;-62
2023/05/16 17:06:25;;;;;;;22.40;15.70;;;;;;;15.74;95.20;94987.91;106593;1276;23278;-62
2023/05/16 17:08:53;;;;;;;17.10;8.50;;;;;;;15.69;95.28;94988.16;106559;1276;22527;-62
2023/05/16 17:11:22;;;;;;;16.90;7.90;;;;;;;15.65;95.52;94992.05;106578;1276;23549;-62
2023/05/16 17:13:50;;;;;;;24.30;12.30;;;;;;;15.65;96.00;94988.14;106552;1276;22532;-62
2023/05/16 17:16:18;;;;;;;20.00;8.50;;;;;;;15.66;96.10;94988.29;106624;1276;25462;-62
2023/05/16 17:18:48;;;;;;;26.20;16.20;;;;;;;15.67;96.11;94984.86;106569;1276;24209;-62
2023/05/16 17:21:16;;;;;;;23.10;9.90;;;;;;;15.69;96.37;94983.88;106621;1276;22528;-63
2023/05/16 17:23:45;;;;;;;25.20;12.40;;;;;;;15.65;95.87;94988.67;106573;1276;24196;-62
2023/05/16 17:26:13;;;;;;;30.60;14.60;;;;;;;15.60;95.76;94982.51;106615;1276;25265;-63
2023/05/16 17:28:41;;;;;;;23.50;11.30;;;;;;;15.60;96.56;94986.26;106570;1276;22531;-62
2023/05/16 17:31:09;;;;;;;31.30;14.60;;;;;;;15.58;96.26;94984.89;106620;1276;25472;-62
2023/05/16 17:33:38;;;;;;;24.10;13.60;;;;;;;15.57;96.15;94979.98;106717;1276;22535;-62
2023/05/16 17:36:06;;;;;;;34.50;21.60;;;;;;;15.56;96.20;94984.11;106652;1276;22523;-62
2023/05/16 17:38:35;;;;;;;35.60;21.30;;;;;;;15.56;96.40;94981.67;106505;1276;22617;-63
2023/05/16 17:41:04;;;;;;;22.10;12.10;;;;;;;15.58;96.99;94982.80;106645;1276;25474;-62
2023/05/16 17:43:32;;;;;;;25.80;12.00;;;;;;;15.59;96.84;94987.14;106588;1276;22650;-62
2023/05/16 17:46:00;;;;;;;16.00;8.60;;;;;;;15.61;96.75;94985.34;106546;1276;22533;-62
2023/05/16 17:48:29;;;;;;;21.20;7.90;;;;;;;15.61;96.91;94989.39;106640;1276;22526;-62
2023/05/16 17:50:57;;;;;;;17.50;8.00;;;;;;;15.63;96.53;94987.73;106725;1276;22544;-62
2023/05/16 17:53:26;;;;;;;20.80;7.70;;;;;;;15.64;96.22;94983.23;106579;1276;24202;-62
2023/05/16 17:55:55;;;;;;;22.30;10.60;;;;;;;15.64;96.12;94985.35;106647;1276;25265;-62
2023/05/16 17:58:23;;;;;;;23.50;10.40;;;;;;;15.64;95.98;94991.23;106623;1276;22656;-62
2023/05/16 18:00:53;;;;;;;44.60;19.30;;;;;;;15.61;96.37;94990.27;106495;1276;24409;-63
2023/05/16 18:03:21;;;;;;;31.90;15.20;;;;;;;15.60;96.58;94991.73;106630;1276;23873;-62
2023/05/16 18:05:49;;;;;;;26.50;12.10;;;;;;;15.62;96.33;94990.25;106539;1273;24377;-63
2023/05/16 18:08:18;;;;;;;35.30;17.30;;;;;;;15.63;96.26;94985.56;106573;1276;25394;-63
2023/05/16 18:10:47;;;;;;;20.00;10.30;;;;;;;15.63;96.03;94991.76;106590;1276;22660;-63
2023/05/16 18:13:20;;;;;;;20.10;9.40;;;;;;;15.57;95.47;94994.73;106661;1276;22527;-62
2023/05/16 18:15:49;;;;;;;37.80;14.70;;;;;;;15.53;96.16;94993.29;106640;1276;22798;-62
2023/05/16 18:18:17;;;;;;;38.00;21.40;;;;;;;15.55;96.18;94991.45;106588;1276;22542;-62
2023/05/16 18:20:46;;;;;;;24.60;14.00;;;;;;;15.57;96.07;94986.75;106585;1276;22790;-62
2023/05/16 18:23:14;;;;;;;33.70;16.30;;;;;;;15.57;96.02;94989.92;106552;1276;25322;-62
2023/05/16 18:25:42;;;;;;;47.40;26.80;;;;;;;15.51;95.89;94989.53;106543;1276;24522;-62
2023/05/16 18:28:10;;;;;;;42.20;25.70;;;;;;;15.45;95.82;94989.77;106588;1276;22646;-62
2023/05/16 18:30:38;;;;;;;33.10;20.10;;;;;;;15.44;95.97;94991.44;106605;1276;24231;-62
2023/05/16 18:33:07;;;;;;;29.60;15.30;;;;;;;15.43;95.94;94994.50;106584;1276;22538;-63
2023/05/16 18:35:35;;;;;;;21.90;12.10;;;;;;;15.44;96.08;94994.11;106604;1276;24755;-62
2023/05/16 18:38:03;;;;;;;46.90;24.20;;;;;;;15.45;96.01;94991.75;106589;1276;22695;-62
2023/05/16 18:40:31;;;;;;;31.40;17.80;;;;;;;15.42;95.58;94993.13;106575;1276;22628;-62
2023/05/16 18:42:59;;;;;;;30.10;16.40;;;;;;;15.39;95.66;94993.80;106531;1276;22724;-62
2023/05/16 18:45:28;;;;;;;31.40;14.10;;;;;;;15.37;95.64;94997.42;106608;1276;22534;-63
2023/05/16 18:47:57;;;;;;;27.00;14.00;;;;;;;15.34;95.48;94991.53;106561;1276;23887;-62
2023/05/16 18:50:26;;;;;;;23.10;10.80;;;;;;;15.33;95.65;94993.88;106572;1276;22532;-62
2023/05/16 18:52:56;;;;;;;27.10;12.20;;;;;;;15.30;95.47;94994.73;106572;1276;22535;-62
2023/05/16 18:55:24;;;;;;;21.70;10.60;;;;;;;15.28;95.49;94991.63;106623;1276;22649;-62
2023/05/16 18:57:53;;;;;;;28.50;14.80;;;;;;;15.27;95.56;94990.63;106478;1276;24244;-62
2023/05/16 19:00:21;;;;;;;20.80;11.10;;;;;;;15.26;95.71;94992.30;106595;1276;22779;-62
2023/05/16 19:02:50;;;;;;;25.10;11.80;;;;;;;15.19;95.25;94991.55;106557;1276;22523;-62
2023/05/16 19:05:18;;;;;;;16.50;7.70;;;;;;;15.13;95.22;94991.98;106676;1276;24196;-63
2023/05/16 19:07:47;;;;;;;17.10;7.60;;;;;;;15.08;94.96;94992.06;106578;1276;24260;-62
2023/05/16 19:10:16;;;;;;;16.00;7.90;;;;;;;15.00;95.06;94992.95;106585;1276;22614;-62
2023/05/16 19:12:47;;;;;;;18.60;8.40;;;;;;;14.95;95.32;94991.39;106611;1276;25475;-62
2023/05/16 19:15:16;;;;;;;25.40;10.00;;;;;;;14.97;95.88;94988.31;106653;1276;22532;-62
2023/05/16 19:17:45;;;;;;;23.70;9.30;;;;;;;14.98;96.20;94987.18;106607;1276;22982;-62
2023/05/16 19:20:14;;;;;;;28.40;12.20;;;;;;;14.96;97.05;94988.31;106618;1276;22473;-62
2023/05/16 19:22:42;;;;;;;16.80;9.20;;;;;;;14.98;96.93;94983.67;106570;1276;22519;-62
2023/05/16 19:25:10;;;;;;;15.10;6.60;;;;;;;15.00;97.18;94988.36;106551;1266;25247;-62
2023/05/16 19:27:39;;;;;;;19.70;8.90;;;;;;;14.99;96.79;94988.73;106558;1276;22520;-62
2023/05/16 19:30:07;;;;;;;20.20;9.90;;;;;;;14.98;96.92;94988.60;106561;1276;22532;-62
2023/05/16 19:32:36;;;;;;;20.40;7.70;;;;;;;14.97;96.45;94988.31;106668;1276;25360;-62